Mitchel — WDE7728 — position and weather

sailwx.info

Track history (hours):
 
Tides and Currents Weather Stations Pressure Air Temp Water Temp Dewpoint Dewpoint Depression Visibility Wind Speed Wind Dir Waves Ship Positions

Mitchel

Owner: AMERICAN TUGS INC., SAN JUAN, PR. More information available from US FCC via Universal Licensing System and Coast Guard Vessel Documentation Center.

Last reported at 2017-Sep-20 01:59 UTC. Time now 2017-Sep-20 02:02 UTC.
Position N 17°58' W 066°37'.

Length 27 m; draft 3.5 m.

Type: Tug. MMSI: 367346890.

Date/timePositionNaut miles runAvg speedWind from/ knotsBaromVisibWave heightAir tempDewpointWater temp
2017-Sep-20 01:59N 17°58' W 066°37'0 0.0
2017-Sep-20 01:29N 17°58' W 066°37'0 0.0
2017-Sep-20 00:59N 17°58' W 066°37'0 0.0
2017-Sep-20 00:29N 17°58' W 066°37'0 0.0
2017-Sep-19 23:59N 17°58' W 066°37'0 0.0
2017-Sep-19 23:29N 17°58' W 066°37'0 0.2
2017-Sep-19 22:59N 17°58' W 066°37'0 0.5
2017-Sep-19 22:31N 17°58' W 066°37'4 8.3
2017-Sep-19 22:00N 17°54' W 066°36'5 9.7
2017-Sep-19 21:30N 17°51' W 066°32'5 9.9
2017-Sep-19 21:00N 17°51' W 066°27'510.0
2017-Sep-19 20:31N 17°52' W 066°22'5 9.8
2017-Sep-19 20:00N 17°53' W 066°17'5 9.7
2017-Sep-19 19:30N 17°54' W 066°12'3 5.9
2017-Sep-19 19:00N 17°56' W 066°09'0 0.0
2017-Sep-19 18:30N 17°56' W 066°09'0 0.0
2017-Sep-19 17:54N 17°56' W 066°09'0 0.0
2017-Sep-19 17:30N 17°56' W 066°09'0 0.0
2017-Sep-19 17:00N 17°56' W 066°09'0 0.0
2017-Sep-19 16:30N 17°56' W 066°09'0 0.0
2017-Sep-19 14:07N 17°56' W 066°09'0 0.8
2017-Sep-19 13:58N 17°56' W 066°09'0 0.0
2017-Sep-19 13:28N 17°56' W 066°09'0 0.0
2017-Sep-19 12:58N 17°56' W 066°09'0 0.1
2017-Sep-19 12:22N 17°56' W 066°09'0 0.4
2017-Sep-19 11:58N 17°56' W 066°09'0 0.0
2017-Sep-19 11:28N 17°56' W 066°09'0 0.0
2017-Sep-19 10:58N 17°56' W 066°09'0 0.0
2017-Sep-19 10:28N 17°56' W 066°09'0 0.0
2017-Sep-19 09:58N 17°56' W 066°09'0 0.0
2017-Sep-19 09:16N 17°56' W 066°09'0 0.0
2017-Sep-19 08:52N 17°56' W 066°09'0 0.0
2017-Sep-19 08:25N 17°56' W 066°09'0 0.0
2017-Sep-19 07:58N 17°56' W 066°09'0 0.0
2017-Sep-19 07:28N 17°56' W 066°09'0 0.0
2017-Sep-19 06:58N 17°56' W 066°09'0 0.0
2017-Sep-19 06:28N 17°56' W 066°09'0 0.0
2017-Sep-19 05:58N 17°56' W 066°09'0 0.0
2017-Sep-19 05:28N 17°56' W 066°09'0 0.0
2017-Sep-19 04:58N 17°56' W 066°09'0 0.0
2017-Sep-19 04:25N 17°56' W 066°09'0 0.0
2017-Sep-19 03:58N 17°56' W 066°09'0 0.0
2017-Sep-19 03:28N 17°56' W 066°09'0 0.0
2017-Sep-19 02:58N 17°56' W 066°09'0 0.0
2017-Sep-19 02:28N 17°56' W 066°09'0 0.0
2017-Sep-19 01:58N 17°56' W 066°09'0 0.0
2017-Sep-19 01:28N 17°56' W 066°09'0 0.0
2017-Sep-19 00:58N 17°56' W 066°09'0 0.0
2017-Sep-19 00:28N 17°56' W 066°09'0 0.0
2017-Sep-18 23:58N 17°56' W 066°09'0 0.0
2017-Sep-18 23:28N 17°56' W 066°09'0 0.0
2017-Sep-18 22:58N 17°56' W 066°09'0 0.0
2017-Sep-18 22:28N 17°56' W 066°09'0 0.0
2017-Sep-18 21:58N 17°56' W 066°09'0 0.0
2017-Sep-18 21:28N 17°56' W 066°09'0 0.0
2017-Sep-18 20:58N 17°56' W 066°09'0 0.0
2017-Sep-18 20:28N 17°56' W 066°09'0 0.0
2017-Sep-18 19:58N 17°56' W 066°09'0 0.0
2017-Sep-18 19:28N 17°56' W 066°09'0 0.0
2017-Sep-18 18:55N 17°56' W 066°09'0 0.0
2017-Sep-18 18:28N 17°56' W 066°09'0 0.0
2017-Sep-18 17:58N 17°56' W 066°09'0 0.0
2017-Sep-18 17:25N 17°56' W 066°09'0 0.0
2017-Sep-18 16:52N 17°56' W 066°09'0 0.0
2017-Sep-18 16:25N 17°56' W 066°09'0 0.0
2017-Sep-18 15:58N 17°56' W 066°09'0 0.0
2017-Sep-18 15:28N 17°56' W 066°09'0 0.0
2017-Sep-18 14:58N 17°56' W 066°09'0 0.0
2017-Sep-18 14:28N 17°56' W 066°09'0 0.0
2017-Sep-18 13:58N 17°56' W 066°09'0 0.0
2017-Sep-18 12:58N 17°56' W 066°09'0 0.0
2017-Sep-18 12:04N 17°56' W 066°09'0 0.1
2017-Sep-18 11:58N 17°56' W 066°09'0 0.0
2017-Sep-18 11:28N 17°56' W 066°09'0 0.0
2017-Sep-18 10:52N 17°56' W 066°09'0 0.0
2017-Sep-18 10:28N 17°56' W 066°09'0 0.0
2017-Sep-18 09:55N 17°56' W 066°09'0 0.0
2017-Sep-18 09:28N 17°56' W 066°09'0 0.0
2017-Sep-18 08:58N 17°56' W 066°09'0 0.0
2017-Sep-18 08:28N 17°56' W 066°09'0 0.0
2017-Sep-18 07:58N 17°56' W 066°09'0 0.0
2017-Sep-18 07:28N 17°56' W 066°09'0 0.0
2017-Sep-18 06:58N 17°56' W 066°09'0 0.0
2017-Sep-18 06:25N 17°56' W 066°09'0 0.0
2017-Sep-18 05:52N 17°56' W 066°09'0 0.0
2017-Sep-18 05:28N 17°56' W 066°09'0 0.0
2017-Sep-18 04:58N 17°56' W 066°09'0 0.0
2017-Sep-18 04:28N 17°56' W 066°09'0 0.0
2017-Sep-18 03:58N 17°56' W 066°09'0 0.0
2017-Sep-18 03:25N 17°56' W 066°09'0 0.0
2017-Sep-18 02:58N 17°56' W 066°09'0 0.0
2017-Sep-18 02:25N 17°56' W 066°09'0 0.0
2017-Sep-18 01:58N 17°56' W 066°09'0 0.0
2017-Sep-18 01:28N 17°56' W 066°09'0 0.0
2017-Sep-18 00:58N 17°56' W 066°09'0 0.0
2017-Sep-18 00:28N 17°56' W 066°09'0 0.0
2017-Sep-17 23:52N 17°56' W 066°09'0 0.0
2017-Sep-17 23:28N 17°56' W 066°09'0 0.0
2017-Sep-17 22:52N 17°56' W 066°09'0 0.0
2017-Sep-17 22:28N 17°56' W 066°09'0 0.0
2017-Sep-17 21:58N 17°56' W 066°09'0 0.0
2017-Sep-17 21:22N 17°56' W 066°09'1 3.4
2017-Sep-17 21:00N 17°55' W 066°10'4 8.9
2017-Sep-17 20:30N 17°55' W 066°15'2 4.0
2017-Sep-17 20:00N 17°56' W 066°14'1 1.2
2017-Sep-17 19:25N 17°57' W 066°14'1 3.3
2017-Sep-17 19:00N 17°56' W 066°14'1 2.6
2017-Sep-17 18:30N 17°54' W 066°14'4 8.9
2017-Sep-17 18:00N 17°56' W 066°10'0 0.8
2017-Sep-17 17:28N 17°56' W 066°09'0 0.0
2017-Sep-17 16:58N 17°56' W 066°09'0 0.0
2017-Sep-17 16:28N 17°56' W 066°09'0 0.0
2017-Sep-17 15:58N 17°56' W 066°09'0 0.0
2017-Sep-17 15:28N 17°56' W 066°09'0 0.0
2017-Sep-17 14:52N 17°56' W 066°09'0 0.0
2017-Sep-17 14:28N 17°56' W 066°09'0 0.0
2017-Sep-17 13:58N 17°56' W 066°09'0 0.0
2017-Sep-17 13:28N 17°56' W 066°09'0 0.0
2017-Sep-17 12:58N 17°56' W 066°09'0 0.0
2017-Sep-17 12:28N 17°56' W 066°09'0 0.0
2017-Sep-17 11:52N 17°56' W 066°09'0 0.0
2017-Sep-17 11:28N 17°56' W 066°09'0 0.0
2017-Sep-17 10:10N 17°56' W 066°09'0 0.0
2017-Sep-17 09:40N 17°56' W 066°09'0 0.0
2017-Sep-17 09:22N 17°56' W 066°09'0 0.0
2017-Sep-17 08:52N 17°56' W 066°09'0 0.0
2017-Sep-17 08:16N 17°56' W 066°09'0 0.0
2017-Sep-17 07:58N 17°56' W 066°09'0 0.0
2017-Sep-17 07:28N 17°56' W 066°09'0 0.0
2017-Sep-17 06:55N 17°56' W 066°09'0 0.0
2017-Sep-17 06:19N 17°56' W 066°09'0 0.0
2017-Sep-17 05:55N 17°56' W 066°09'0 0.0
2017-Sep-17 05:28N 17°56' W 066°09'0 0.0
2017-Sep-17 04:58N 17°56' W 066°09'0 0.0
2017-Sep-17 04:28N 17°56' W 066°09'0 0.0
2017-Sep-17 03:58N 17°56' W 066°09'0 0.0
2017-Sep-17 03:28N 17°56' W 066°09'0 0.0
2017-Sep-17 02:58N 17°56' W 066°09'0 0.0
2017-Sep-17 02:25N 17°56' W 066°09'0 0.0
2017-Sep-17 01:58N 17°56' W 066°09'0 0.0
2017-Sep-17 01:28N 17°56' W 066°09'0 0.0
2017-Sep-17 00:58N 17°56' W 066°09'0 0.0
2017-Sep-17 00:28N 17°56' W 066°09'0 0.0
2017-Sep-16 23:52N 17°56' W 066°09'0 0.0
2017-Sep-16 23:22N 17°56' W 066°09'0 0.0
2017-Sep-16 22:58N 17°56' W 066°09'0 0.0
2017-Sep-16 22:28N 17°56' W 066°09'2 2.7
2017-Sep-16 21:45N 17°55' W 066°11'2 7.4
2017-Sep-16 21:30N 17°54' W 066°12'4 7.1
2017-Sep-16 21:00N 17°55' W 066°16'3 6.0
2017-Sep-16 20:30N 17°57' W 066°14'0 0.1
2017-Sep-16 20:00N 17°57' W 066°14'1 1.0
2017-Sep-16 19:28N 17°56' W 066°13'1 2.8
2017-Sep-16 19:00N 17°55' W 066°15'2 3.6
2017-Sep-16 18:30N 17°56' W 066°16'1 2.3
2017-Sep-16 18:00N 17°55' W 066°17'4 7.0
2017-Sep-16 17:30N 17°54' W 066°13'4 7.1
2017-Sep-16 17:00N 17°56' W 066°10'1 1.4
2017-Sep-16 16:25N 17°56' W 066°09'0 0.0
2017-Sep-16 15:55N 17°56' W 066°09'0 0.0
2017-Sep-16 15:30N 17°56' W 066°09'0 0.3
2017-Sep-16 14:57N 17°56' W 066°09'0 0.2
2017-Sep-16 14:26N 17°56' W 066°09'0 0.1
2017-Sep-16 13:50N 17°56' W 066°09'0 0.0
2017-Sep-16 12:20N 17°56' W 066°09'0 0.0
2017-Sep-16 11:59N 17°56' W 066°09'0 0.0
2017-Sep-16 11:29N 17°56' W 066°09'0 0.0
2017-Sep-15 18:02N 17°56' W 066°09'0 0.0
2017-Sep-15 17:56N 17°56' W 066°09'0 0.0
2017-Sep-15 17:26N 17°56' W 066°09'0 0.0
2017-Sep-15 16:56N 17°56' W 066°09'0 0.0
2017-Sep-15 16:14N 17°56' W 066°09'0 0.0
2017-Sep-15 15:56N 17°56' W 066°09'0 0.0
2017-Sep-15 15:26N 17°56' W 066°09'0 0.0
2017-Sep-15 14:56N 17°56' W 066°09'0 0.0
2017-Sep-15 14:29N 17°56' W 066°09'0 0.0
2017-Sep-15 13:44N 17°56' W 066°09'0 0.0
2017-Sep-15 13:20N 17°56' W 066°09'0 0.0
2017-Sep-15 12:56N 17°56' W 066°09'0 0.0
2017-Sep-15 12:29N 17°56' W 066°09'0 0.0
2017-Sep-15 11:59N 17°56' W 066°09'0 0.0
2017-Sep-15 11:29N 17°56' W 066°09'0 0.0
2017-Sep-15 10:35N 17°56' W 066°09'0 0.0
2017-Sep-15 10:26N 17°56' W 066°09'0 0.0
2017-Sep-15 09:53N 17°56' W 066°09'0 0.0
2017-Sep-15 09:29N 17°56' W 066°09'0 0.0
2017-Sep-15 08:59N 17°56' W 066°09'0 0.0
2017-Sep-15 08:29N 17°56' W 066°09'0 0.0
2017-Sep-15 07:59N 17°56' W 066°09'0 0.0
2017-Sep-15 07:29N 17°56' W 066°09'0 0.0
2017-Sep-15 06:59N 17°56' W 066°09'0 0.0
2017-Sep-15 06:29N 17°56' W 066°09'0 0.0
2017-Sep-15 05:59N 17°56' W 066°09'0 0.0
2017-Sep-15 05:26N 17°56' W 066°09'0 0.0
2017-Sep-15 04:59N 17°56' W 066°09'0 0.0
2017-Sep-15 04:26N 17°56' W 066°09'0 0.0
2017-Sep-15 03:59N 17°56' W 066°09'0 0.0
2017-Sep-15 03:20N 17°56' W 066°09'0 0.0
2017-Sep-15 02:56N 17°56' W 066°09'0 0.0
2017-Sep-15 02:26N 17°56' W 066°09'0 0.0
2017-Sep-15 01:56N 17°56' W 066°09'0 0.0
2017-Sep-15 01:29N 17°56' W 066°09'0 0.0
2017-Sep-15 00:38N 17°56' W 066°09'0 0.0
2017-Sep-15 00:29N 17°56' W 066°09'0 0.0
2017-Sep-14 23:56N 17°56' W 066°09'0 0.0
2017-Sep-14 23:29N 17°56' W 066°09'0 0.0
2017-Sep-14 22:59N 17°56' W 066°09'0 0.0
2017-Sep-14 22:26N 17°56' W 066°09'0 0.0
2017-Sep-14 21:56N 17°56' W 066°09'0 0.0
2017-Sep-14 21:29N 17°56' W 066°09'0 0.0
2017-Sep-14 20:56N 17°56' W 066°09'0 0.0
2017-Sep-14 20:26N 17°56' W 066°09'0 0.0
2017-Sep-14 19:56N 17°56' W 066°09'0 0.0
2017-Sep-14 19:29N 17°56' W 066°09'0 0.0
2017-Sep-14 18:59N 17°56' W 066°09'0 0.0
2017-Sep-14 18:26N 17°56' W 066°09'0 0.0
2017-Sep-14 17:50N 17°56' W 066°09'0 0.0
2017-Sep-14 17:08N 17°56' W 066°09'0 0.0
2017-Sep-14 16:38N 17°56' W 066°09'0 0.0
2017-Sep-14 16:14N 17°56' W 066°09'0 0.0
2017-Sep-14 15:56N 17°56' W 066°09'0 0.0
2017-Sep-14 15:26N 17°56' W 066°09'0 0.0
2017-Sep-14 14:56N 17°56' W 066°09'0 0.0
2017-Sep-14 14:26N 17°56' W 066°09'0 0.0
2017-Sep-14 13:32N 17°56' W 066°09'0 0.0
2017-Sep-14 13:29N 17°56' W 066°09'0 0.0
2017-Sep-14 12:44N 17°56' W 066°09'0 0.0
2017-Sep-14 12:29N 17°56' W 066°09'0 0.0
2017-Sep-14 11:59N 17°56' W 066°09'0 0.0
2017-Sep-14 10:38N 17°56' W 066°09'0 0.0
2017-Sep-14 10:20N 17°56' W 066°09'0 0.0
2017-Sep-14 09:56N 17°56' W 066°09'0 0.0
2017-Sep-14 09:02N 17°56' W 066°09'0 0.0
2017-Sep-14 08:56N 17°56' W 066°09'0 0.0
2017-Sep-14 08:26N 17°56' W 066°09'0 0.0
2017-Sep-14 07:50N 17°56' W 066°09'0 0.0
2017-Sep-14 06:56N 17°56' W 066°09'0 0.0
2017-Sep-14 05:02N 17°56' W 066°09'0 0.0
2017-Sep-14 04:50N 17°56' W 066°09'0 0.0
2017-Sep-14 04:14N 17°56' W 066°09'0 0.0
2017-Sep-14 03:20N 17°56' W 066°09'0 0.0
2017-Sep-14 02:56N 17°56' W 066°09'0 0.0
2017-Sep-14 02:26N 17°56' W 066°09'0 0.0
2017-Sep-14 01:59N 17°56' W 066°09'0 0.0
2017-Sep-14 01:26N 17°56' W 066°09'0 0.0
2017-Sep-14 00:56N 17°56' W 066°09'0 0.0
2017-Sep-14 00:20N 17°56' W 066°09'0 0.0
2017-Sep-13 23:56N 17°56' W 066°09'0 0.0
2017-Sep-13 21:32N 17°56' W 066°09'0 0.0
2017-Sep-13 21:14N 17°56' W 066°09'0 0.0
2017-Sep-13 20:56N 17°56' W 066°09'0 0.0
2017-Sep-13 19:38N 17°56' W 066°09'0 0.0
2017-Sep-13 19:14N 17°56' W 066°09'0 0.0
2017-Sep-13 18:50N 17°56' W 066°09'0 0.0
2017-Sep-13 18:26N 17°56' W 066°09'0 0.0
2017-Sep-13 17:38N 17°56' W 066°09'0 0.0
2017-Sep-13 17:26N 17°56' W 066°09'0 0.0
2017-Sep-13 16:56N 17°56' W 066°09'0 0.0
2017-Sep-13 16:29N 17°56' W 066°09'0 0.0
2017-Sep-13 15:53N 17°56' W 066°09'0 0.0
2017-Sep-13 15:20N 17°56' W 066°09'0 0.0
2017-Sep-13 14:59N 17°56' W 066°09'0 0.0
2017-Sep-13 14:23N 17°56' W 066°09'0 0.0
2017-Sep-13 13:50N 17°56' W 066°09'0 0.0
2017-Sep-13 13:26N 17°56' W 066°09'0 0.0
2017-Sep-13 12:50N 17°56' W 066°09'0 0.0
2017-Sep-13 12:29N 17°56' W 066°09'0 0.0
2017-Sep-13 11:56N 17°56' W 066°09'0 0.0
2017-Sep-13 10:26N 17°56' W 066°09'0 0.0
2017-Sep-13 09:38N 17°56' W 066°09'0 0.0
2017-Sep-13 09:14N 17°56' W 066°09'0 0.0
2017-Sep-13 08:56N 17°56' W 066°09'0 0.0
2017-Sep-13 08:14N 17°56' W 066°09'0 0.0
2017-Sep-13 07:14N 17°56' W 066°09'0 0.0
2017-Sep-13 06:44N 17°56' W 066°09'0 0.0
2017-Sep-13 06:26N 17°56' W 066°09'0 0.0
2017-Sep-13 05:56N 17°56' W 066°09'0 0.0
2017-Sep-13 05:26N 17°56' W 066°09'0 0.0
2017-Sep-13 04:50N 17°56' W 066°09'0 0.0
2017-Sep-13 04:20N 17°56' W 066°09'0 0.0
2017-Sep-13 03:53N 17°56' W 066°09'0 0.0
2017-Sep-13 03:20N 17°56' W 066°09'0 0.0
2017-Sep-13 02:50N 17°56' W 066°09'0 0.0
2017-Sep-13 02:20N 17°56' W 066°09'0 0.0
2017-Sep-13 01:56N 17°56' W 066°09'0 0.0
2017-Sep-13 01:20N 17°56' W 066°09'0 0.0
2017-Sep-13 00:50N 17°56' W 066°09'0 0.0
2017-Sep-13 00:26N 17°56' W 066°09'0 0.0
2017-Sep-12 23:59N 17°56' W 066°09'0 0.0
2017-Sep-12 23:26N 17°56' W 066°09'0 0.0
2017-Sep-12 22:59N 17°56' W 066°09'0 0.0
2017-Sep-12 22:26N 17°56' W 066°09'0 0.0
2017-Sep-12 21:59N 17°56' W 066°09'0 0.0
2017-Sep-12 21:26N 17°56' W 066°09'0 0.0
2017-Sep-12 20:44N 17°56' W 066°09'0 0.0
2017-Sep-12 20:26N 17°56' W 066°09'0 0.0
2017-Sep-12 19:56N 17°56' W 066°09'0 0.0
2017-Sep-12 19:26N 17°56' W 066°09'0 0.0
2017-Sep-12 18:59N 17°56' W 066°09'0 0.0
2017-Sep-12 18:29N 17°56' W 066°09'0 0.0
2017-Sep-12 17:59N 17°56' W 066°09'0 0.0
2017-Sep-12 17:02N 17°56' W 066°09'0 0.0
2017-Sep-12 16:53N 17°56' W 066°09'0 0.0
2017-Sep-12 16:26N 17°56' W 066°09'0 0.0
2017-Sep-12 15:56N 17°56' W 066°09'0 0.0
2017-Sep-12 15:26N 17°56' W 066°09'0 0.0
2017-Sep-12 14:56N 17°56' W 066°09'0 0.0
2017-Sep-12 14:26N 17°56' W 066°09'0 0.0
2017-Sep-12 13:56N 17°56' W 066°09'0 0.0
2017-Sep-12 13:26N 17°56' W 066°09'0 0.0
2017-Sep-12 12:56N 17°56' W 066°09'0 0.0
2017-Sep-12 12:26N 17°56' W 066°09'0 0.0
2017-Sep-12 11:56N 17°56' W 066°09'0 0.0
2017-Sep-12 11:26N 17°56' W 066°09'0 0.0
2017-Sep-12 10:59N 17°56' W 066°09'0 0.0
2017-Sep-12 10:26N 17°56' W 066°09'0 0.0
2017-Sep-12 09:50N 17°56' W 066°09'0 0.0
2017-Sep-12 09:26N 17°56' W 066°09'0 0.0
2017-Sep-12 08:50N 17°56' W 066°09'0 0.0
2017-Sep-12 08:26N 17°56' W 066°09'0 0.0
2017-Sep-12 07:56N 17°56' W 066°09'0 0.0
2017-Sep-12 07:29N 17°56' W 066°09'0 0.0
2017-Sep-12 06:56N 17°56' W 066°09'0 0.0
2017-Sep-12 06:26N 17°56' W 066°09'0 0.0
2017-Sep-12 05:56N 17°56' W 066°09'0 0.0
2017-Sep-12 05:26N 17°56' W 066°09'0 0.0
2017-Sep-12 04:44N 17°56' W 066°09'0 0.0
2017-Sep-12 04:29N 17°56' W 066°09'0 0.0
2017-Sep-12 03:56N 17°56' W 066°09'0 0.0
2017-Sep-12 03:26N 17°56' W 066°09'0 0.0
2017-Sep-12 02:56N 17°56' W 066°09'0 0.0
2017-Sep-12 02:26N 17°56' W 066°09'0 0.0
2017-Sep-12 01:59N 17°56' W 066°09'0 0.0
2017-Sep-12 01:26N 17°56' W 066°09'0 0.0
2017-Sep-12 00:56N 17°56' W 066°09'0 0.0
2017-Sep-12 00:26N 17°56' W 066°09'0 0.0
2017-Sep-11 23:56N 17°56' W 066°09'0 0.0
2017-Sep-11 23:26N 17°56' W 066°09'0 0.0
2017-Sep-11 22:59N 17°56' W 066°09'0 0.0
2017-Sep-11 22:29N 17°56' W 066°09'0 0.0
2017-Sep-11 21:59N 17°56' W 066°09'0 0.0
2017-Sep-11 21:26N 17°56' W 066°09'0 0.0
2017-Sep-11 20:56N 17°56' W 066°09'0 0.0
2017-Sep-11 20:26N 17°56' W 066°09'0 0.0
2017-Sep-11 19:56N 17°56' W 066°09'0 0.0
2017-Sep-11 19:29N 17°56' W 066°09'0 0.0
2017-Sep-11 18:56N 17°56' W 066°09'0 0.0
2017-Sep-11 18:26N 17°56' W 066°09'0 0.0
2017-Sep-11 17:56N 17°56' W 066°09'0 0.0
2017-Sep-11 17:26N 17°56' W 066°09'0 0.0
2017-Sep-11 16:50N 17°56' W 066°09'0 0.0
2017-Sep-11 16:26N 17°56' W 066°09'0 0.0
2017-Sep-11 15:56N 17°56' W 066°09'0 0.0
2017-Sep-11 15:26N 17°56' W 066°09'0 0.0
2017-Sep-11 14:56N 17°56' W 066°09'0 0.0
2017-Sep-11 14:29N 17°56' W 066°09'0 0.0
2017-Sep-11 13:44N 17°56' W 066°09'0 0.0
2017-Sep-11 13:23N 17°56' W 066°09'0 0.0
2017-Sep-11 12:59N 17°56' W 066°09'0 0.0
2017-Sep-11 12:23N 17°56' W 066°09'0 0.0
2017-Sep-11 11:59N 17°56' W 066°09'0 0.0
2017-Sep-11 11:29N 17°56' W 066°09'0 0.0
2017-Sep-11 10:59N 17°56' W 066°09'0 0.0
2017-Sep-11 10:29N 17°56' W 066°09'0 0.0
2017-Sep-11 09:56N 17°56' W 066°09'0 0.0
2017-Sep-11 09:26N 17°56' W 066°09'0 0.0
2017-Sep-11 08:59N 17°56' W 066°09'0 0.0
2017-Sep-11 08:26N 17°56' W 066°09'0 0.0
2017-Sep-11 07:56N 17°56' W 066°09'0 0.0
2017-Sep-11 07:29N 17°56' W 066°09'0 0.0
2017-Sep-11 06:50N 17°56' W 066°09'0 0.0
2017-Sep-11 06:08N 17°56' W 066°09'0 0.0
2017-Sep-11 05:59N 17°56' W 066°09'0 0.0
2017-Sep-11 05:29N 17°56' W 066°09'0 0.0
2017-Sep-11 04:50N 17°56' W 066°09'0 0.0
2017-Sep-11 04:20N 17°56' W 066°09'0 0.0
2017-Sep-11 03:56N 17°56' W 066°09'0 0.0
2017-Sep-11 03:29N 17°56' W 066°09'0 0.0
2017-Sep-11 02:53N 17°56' W 066°09'0 0.0
2017-Sep-11 02:29N 17°56' W 066°09'0 0.0
2017-Sep-11 01:56N 17°56' W 066°09'0 0.0
2017-Sep-11 01:26N 17°56' W 066°09'0 0.0
2017-Sep-11 00:56N 17°56' W 066°09'0 0.0
2017-Sep-11 00:26N 17°56' W 066°09'0 0.0
2017-Sep-10 23:59N 17°56' W 066°09'0 0.0
2017-Sep-10 23:26N 17°56' W 066°09'0 0.0
2017-Sep-10 22:59N 17°56' W 066°09'0 0.0
2017-Sep-10 22:11N 17°56' W 066°09'0 0.0
2017-Sep-10 21:59N 17°56' W 066°09'0 0.0
2017-Sep-10 21:26N 17°56' W 066°09'0 0.0
2017-Sep-10 20:56N 17°56' W 066°09'0 0.0
2017-Sep-10 20:26N 17°56' W 066°09'0 0.0
2017-Sep-10 19:59N 17°56' W 066°09'0 0.0
2017-Sep-10 19:26N 17°56' W 066°09'0 0.0
2017-Sep-10 18:44N 17°56' W 066°09'0 0.0
2017-Sep-10 18:26N 17°56' W 066°09'0 0.0
2017-Sep-10 17:50N 17°56' W 066°09'0 0.0
2017-Sep-10 17:29N 17°56' W 066°09'0 0.0
2017-Sep-10 16:56N 17°56' W 066°09'0 0.0
2017-Sep-10 16:14N 17°56' W 066°09'0 0.0
2017-Sep-10 15:44N 17°56' W 066°09'0 0.0
2017-Sep-10 15:26N 17°56' W 066°09'0 0.0
2017-Sep-10 14:56N 17°56' W 066°09'0 0.0
2017-Sep-10 13:56N 17°56' W 066°09'0 0.0
2017-Sep-10 13:20N 17°56' W 066°09'0 0.0
2017-Sep-10 12:59N 17°56' W 066°09'0 0.0
2017-Sep-10 12:29N 17°56' W 066°09'0 0.0
2017-Sep-10 11:56N 17°56' W 066°09'0 0.0
2017-Sep-10 11:26N 17°56' W 066°09'0 0.0
2017-Sep-10 10:50N 17°56' W 066°09'0 0.0
2017-Sep-10 10:29N 17°56' W 066°09'0 0.0
2017-Sep-10 09:26N 17°56' W 066°09'0 0.0
2017-Sep-10 08:56N 17°56' W 066°09'0 0.0
2017-Sep-10 08:26N 17°56' W 066°09'0 0.0
2017-Sep-10 07:56N 17°56' W 066°09'0 0.0
2017-Sep-10 07:26N 17°56' W 066°09'0 0.0
2017-Sep-10 06:59N 17°56' W 066°09'0 0.0
2017-Sep-10 06:29N 17°56' W 066°09'0 0.0
2017-Sep-10 05:59N 17°56' W 066°09'0 0.0
2017-Sep-10 05:26N 17°56' W 066°09'0 0.0
2017-Sep-10 04:56N 17°56' W 066°09'0 0.0
2017-Sep-10 04:29N 17°56' W 066°09'0 0.0
2017-Sep-10 03:56N 17°56' W 066°09'0 0.0
2017-Sep-10 03:29N 17°56' W 066°09'0 0.0
2017-Sep-10 02:56N 17°56' W 066°09'0 0.0
2017-Sep-10 02:29N 17°56' W 066°09'  
Track history (hours):
 
Tides and Currents Weather Stations Pressure Air Temp Water Temp Dewpoint Dewpoint Depression Visibility Wind Speed Wind Dir Waves Ship Positions

Mitchel

Owner: AMERICAN TUGS INC., SAN JUAN, PR. More information available from US FCC via Universal Licensing System and Coast Guard Vessel Documentation Center.

Last reported at 2017-Sep-20 01:59 UTC. Time now 2017-Sep-20 02:02 UTC.
Position N 17°58' W 066°37'.

Length 27 m; draft 3.5 m.

Type: Tug. MMSI: 367346890.

Date/timePositionNaut miles runAvg speedWind from/ knotsBaromVisibWave heightAir tempDewpointWater temp
2017-Sep-20 01:59N 17°58' W 066°37'0 0.0
2017-Sep-20 01:29N 17°58' W 066°37'0 0.0
2017-Sep-20 00:59N 17°58' W 066°37'0 0.0
2017-Sep-20 00:29N 17°58' W 066°37'0 0.0
2017-Sep-19 23:59N 17°58' W 066°37'0 0.0
2017-Sep-19 23:29N 17°58' W 066°37'0 0.2
2017-Sep-19 22:59N 17°58' W 066°37'0 0.5
2017-Sep-19 22:31N 17°58' W 066°37'4 8.3
2017-Sep-19 22:00N 17°54' W 066°36'5 9.7
2017-Sep-19 21:30N 17°51' W 066°32'5 9.9
2017-Sep-19 21:00N 17°51' W 066°27'510.0
2017-Sep-19 20:31N 17°52' W 066°22'5 9.8
2017-Sep-19 20:00N 17°53' W 066°17'5 9.7
2017-Sep-19 19:30N 17°54' W 066°12'3 5.9
2017-Sep-19 19:00N 17°56' W 066°09'0 0.0
2017-Sep-19 18:30N 17°56' W 066°09'0 0.0
2017-Sep-19 17:54N 17°56' W 066°09'0 0.0
2017-Sep-19 17:30N 17°56' W 066°09'0 0.0
2017-Sep-19 17:00N 17°56' W 066°09'0 0.0
2017-Sep-19 16:30N 17°56' W 066°09'0 0.0
2017-Sep-19 14:07N 17°56' W 066°09'0 0.8
2017-Sep-19 13:58N 17°56' W 066°09'0 0.0
2017-Sep-19 13:28N 17°56' W 066°09'0 0.0
2017-Sep-19 12:58N 17°56' W 066°09'0 0.1
2017-Sep-19 12:22N 17°56' W 066°09'0 0.4
2017-Sep-19 11:58N 17°56' W 066°09'0 0.0
2017-Sep-19 11:28N 17°56' W 066°09'0 0.0
2017-Sep-19 10:58N 17°56' W 066°09'0 0.0
2017-Sep-19 10:28N 17°56' W 066°09'0 0.0
2017-Sep-19 09:58N 17°56' W 066°09'0 0.0
2017-Sep-19 09:16N 17°56' W 066°09'0 0.0
2017-Sep-19 08:52N 17°56' W 066°09'0 0.0
2017-Sep-19 08:25N 17°56' W 066°09'0 0.0
2017-Sep-19 07:58N 17°56' W 066°09'0 0.0
2017-Sep-19 07:28N 17°56' W 066°09'0 0.0
2017-Sep-19 06:58N 17°56' W 066°09'0 0.0
2017-Sep-19 06:28N 17°56' W 066°09'0 0.0
2017-Sep-19 05:58N 17°56' W 066°09'0 0.0
2017-Sep-19 05:28N 17°56' W 066°09'0 0.0
2017-Sep-19 04:58N 17°56' W 066°09'0 0.0
2017-Sep-19 04:25N 17°56' W 066°09'0 0.0
2017-Sep-19 03:58N 17°56' W 066°09'0 0.0
2017-Sep-19 03:28N 17°56' W 066°09'0 0.0
2017-Sep-19 02:58N 17°56' W 066°09'0 0.0
2017-Sep-19 02:28N 17°56' W 066°09'0 0.0
2017-Sep-19 01:58N 17°56' W 066°09'0 0.0
2017-Sep-19 01:28N 17°56' W 066°09'0 0.0
2017-Sep-19 00:58N 17°56' W 066°09'0 0.0
2017-Sep-19 00:28N 17°56' W 066°09'0 0.0
2017-Sep-18 23:58N 17°56' W 066°09'0 0.0
2017-Sep-18 23:28N 17°56' W 066°09'0 0.0
2017-Sep-18 22:58N 17°56' W 066°09'0 0.0
2017-Sep-18 22:28N 17°56' W 066°09'0 0.0
2017-Sep-18 21:58N 17°56' W 066°09'0 0.0
2017-Sep-18 21:28N 17°56' W 066°09'0 0.0
2017-Sep-18 20:58N 17°56' W 066°09'0 0.0
2017-Sep-18 20:28N 17°56' W 066°09'0 0.0
2017-Sep-18 19:58N 17°56' W 066°09'0 0.0
2017-Sep-18 19:28N 17°56' W 066°09'0 0.0
2017-Sep-18 18:55N 17°56' W 066°09'0 0.0
2017-Sep-18 18:28N 17°56' W 066°09'0 0.0
2017-Sep-18 17:58N 17°56' W 066°09'0 0.0
2017-Sep-18 17:25N 17°56' W 066°09'0 0.0
2017-Sep-18 16:52N 17°56' W 066°09'0 0.0
2017-Sep-18 16:25N 17°56' W 066°09'0 0.0
2017-Sep-18 15:58N 17°56' W 066°09'0 0.0
2017-Sep-18 15:28N 17°56' W 066°09'0 0.0
2017-Sep-18 14:58N 17°56' W 066°09'0 0.0
2017-Sep-18 14:28N 17°56' W 066°09'0 0.0
2017-Sep-18 13:58N 17°56' W 066°09'0 0.0
2017-Sep-18 12:58N 17°56' W 066°09'0 0.0
2017-Sep-18 12:04N 17°56' W 066°09'0 0.1
2017-Sep-18 11:58N 17°56' W 066°09'0 0.0
2017-Sep-18 11:28N 17°56' W 066°09'0 0.0
2017-Sep-18 10:52N 17°56' W 066°09'0 0.0
2017-Sep-18 10:28N 17°56' W 066°09'0 0.0
2017-Sep-18 09:55N 17°56' W 066°09'0 0.0
2017-Sep-18 09:28N 17°56' W 066°09'0 0.0
2017-Sep-18 08:58N 17°56' W 066°09'0 0.0
2017-Sep-18 08:28N 17°56' W 066°09'0 0.0
2017-Sep-18 07:58N 17°56' W 066°09'0 0.0
2017-Sep-18 07:28N 17°56' W 066°09'0 0.0
2017-Sep-18 06:58N 17°56' W 066°09'0 0.0
2017-Sep-18 06:25N 17°56' W 066°09'0 0.0
2017-Sep-18 05:52N 17°56' W 066°09'0 0.0
2017-Sep-18 05:28N 17°56' W 066°09'0 0.0
2017-Sep-18 04:58N 17°56' W 066°09'0 0.0
2017-Sep-18 04:28N 17°56' W 066°09'0 0.0
2017-Sep-18 03:58N 17°56' W 066°09'0 0.0
2017-Sep-18 03:25N 17°56' W 066°09'0 0.0
2017-Sep-18 02:58N 17°56' W 066°09'0 0.0
2017-Sep-18 02:25N 17°56' W 066°09'0 0.0
2017-Sep-18 01:58N 17°56' W 066°09'0 0.0
2017-Sep-18 01:28N 17°56' W 066°09'0 0.0
2017-Sep-18 00:58N 17°56' W 066°09'0 0.0
2017-Sep-18 00:28N 17°56' W 066°09'0 0.0
2017-Sep-17 23:52N 17°56' W 066°09'0 0.0
2017-Sep-17 23:28N 17°56' W 066°09'0 0.0
2017-Sep-17 22:52N 17°56' W 066°09'0 0.0
2017-Sep-17 22:28N 17°56' W 066°09'0 0.0
2017-Sep-17 21:58N 17°56' W 066°09'0 0.0
2017-Sep-17 21:22N 17°56' W 066°09'1 3.4
2017-Sep-17 21:00N 17°55' W 066°10'4 8.9
2017-Sep-17 20:30N 17°55' W 066°15'2 4.0
2017-Sep-17 20:00N 17°56' W 066°14'1 1.2
2017-Sep-17 19:25N 17°57' W 066°14'1 3.3
2017-Sep-17 19:00N 17°56' W 066°14'1 2.6
2017-Sep-17 18:30N 17°54' W 066°14'4 8.9
2017-Sep-17 18:00N 17°56' W 066°10'0 0.8
2017-Sep-17 17:28N 17°56' W 066°09'0 0.0
2017-Sep-17 16:58N 17°56' W 066°09'0 0.0
2017-Sep-17 16:28N 17°56' W 066°09'0 0.0
2017-Sep-17 15:58N 17°56' W 066°09'0 0.0
2017-Sep-17 15:28N 17°56' W 066°09'0 0.0
2017-Sep-17 14:52N 17°56' W 066°09'0 0.0
2017-Sep-17 14:28N 17°56' W 066°09'0 0.0
2017-Sep-17 13:58N 17°56' W 066°09'0 0.0
2017-Sep-17 13:28N 17°56' W 066°09'0 0.0
2017-Sep-17 12:58N 17°56' W 066°09'0 0.0
2017-Sep-17 12:28N 17°56' W 066°09'0 0.0
2017-Sep-17 11:52N 17°56' W 066°09'0 0.0
2017-Sep-17 11:28N 17°56' W 066°09'0 0.0
2017-Sep-17 10:10N 17°56' W 066°09'0 0.0
2017-Sep-17 09:40N 17°56' W 066°09'0 0.0
2017-Sep-17 09:22N 17°56' W 066°09'0 0.0
2017-Sep-17 08:52N 17°56' W 066°09'0 0.0
2017-Sep-17 08:16N 17°56' W 066°09'0 0.0
2017-Sep-17 07:58N 17°56' W 066°09'0 0.0
2017-Sep-17 07:28N 17°56' W 066°09'0 0.0
2017-Sep-17 06:55N 17°56' W 066°09'0 0.0
2017-Sep-17 06:19N 17°56' W 066°09'0 0.0
2017-Sep-17 05:55N 17°56' W 066°09'0 0.0
2017-Sep-17 05:28N 17°56' W 066°09'0 0.0
2017-Sep-17 04:58N 17°56' W 066°09'0 0.0
2017-Sep-17 04:28N 17°56' W 066°09'0 0.0
2017-Sep-17 03:58N 17°56' W 066°09'0 0.0
2017-Sep-17 03:28N 17°56' W 066°09'0 0.0
2017-Sep-17 02:58N 17°56' W 066°09'0 0.0
2017-Sep-17 02:25N 17°56' W 066°09'0 0.0
2017-Sep-17 01:58N 17°56' W 066°09'0 0.0
2017-Sep-17 01:28N 17°56' W 066°09'0 0.0
2017-Sep-17 00:58N 17°56' W 066°09'0 0.0
2017-Sep-17 00:28N 17°56' W 066°09'0 0.0
2017-Sep-16 23:52N 17°56' W 066°09'0 0.0
2017-Sep-16 23:22N 17°56' W 066°09'0 0.0
2017-Sep-16 22:58N 17°56' W 066°09'0 0.0
2017-Sep-16 22:28N 17°56' W 066°09'2 2.7
2017-Sep-16 21:45N 17°55' W 066°11'2 7.4
2017-Sep-16 21:30N 17°54' W 066°12'4 7.1
2017-Sep-16 21:00N 17°55' W 066°16'3 6.0
2017-Sep-16 20:30N 17°57' W 066°14'0 0.1
2017-Sep-16 20:00N 17°57' W 066°14'1 1.0
2017-Sep-16 19:28N 17°56' W 066°13'1 2.8
2017-Sep-16 19:00N 17°55' W 066°15'2 3.6
2017-Sep-16 18:30N 17°56' W 066°16'1 2.3
2017-Sep-16 18:00N 17°55' W 066°17'4 7.0
2017-Sep-16 17:30N 17°54' W 066°13'4 7.1
2017-Sep-16 17:00N 17°56' W 066°10'1 1.4
2017-Sep-16 16:25N 17°56' W 066°09'0 0.0
2017-Sep-16 15:55N 17°56' W 066°09'0 0.0
2017-Sep-16 15:30N 17°56' W 066°09'0 0.3
2017-Sep-16 14:57N 17°56' W 066°09'0 0.2
2017-Sep-16 14:26N 17°56' W 066°09'0 0.1
2017-Sep-16 13:50N 17°56' W 066°09'0 0.0
2017-Sep-16 12:20N 17°56' W 066°09'0 0.0
2017-Sep-16 11:59N 17°56' W 066°09'0 0.0
2017-Sep-16 11:29N 17°56' W 066°09'0 0.0
2017-Sep-15 18:02N 17°56' W 066°09'0 0.0
2017-Sep-15 17:56N 17°56' W 066°09'0 0.0
2017-Sep-15 17:26N 17°56' W 066°09'0 0.0
2017-Sep-15 16:56N 17°56' W 066°09'0 0.0
2017-Sep-15 16:14N 17°56' W 066°09'0 0.0
2017-Sep-15 15:56N 17°56' W 066°09'0 0.0
2017-Sep-15 15:26N 17°56' W 066°09'0 0.0
2017-Sep-15 14:56N 17°56' W 066°09'0 0.0
2017-Sep-15 14:29N 17°56' W 066°09'0 0.0
2017-Sep-15 13:44N 17°56' W 066°09'0 0.0
2017-Sep-15 13:20N 17°56' W 066°09'0 0.0
2017-Sep-15 12:56N 17°56' W 066°09'0 0.0
2017-Sep-15 12:29N 17°56' W 066°09'0 0.0
2017-Sep-15 11:59N 17°56' W 066°09'0 0.0
2017-Sep-15 11:29N 17°56' W 066°09'0 0.0
2017-Sep-15 10:35N 17°56' W 066°09'0 0.0
2017-Sep-15 10:26N 17°56' W 066°09'0 0.0
2017-Sep-15 09:53N 17°56' W 066°09'0 0.0
2017-Sep-15 09:29N 17°56' W 066°09'0 0.0
2017-Sep-15 08:59N 17°56' W 066°09'0 0.0
2017-Sep-15 08:29N 17°56' W 066°09'0 0.0
2017-Sep-15 07:59N 17°56' W 066°09'0 0.0
2017-Sep-15 07:29N 17°56' W 066°09'0 0.0
2017-Sep-15 06:59N 17°56' W 066°09'0 0.0
2017-Sep-15 06:29N 17°56' W 066°09'0 0.0
2017-Sep-15 05:59N 17°56' W 066°09'0 0.0
2017-Sep-15 05:26N 17°56' W 066°09'0 0.0
2017-Sep-15 04:59N 17°56' W 066°09'0 0.0
2017-Sep-15 04:26N 17°56' W 066°09'0 0.0
2017-Sep-15 03:59N 17°56' W 066°09'0 0.0
2017-Sep-15 03:20N 17°56' W 066°09'0 0.0
2017-Sep-15 02:56N 17°56' W 066°09'0 0.0
2017-Sep-15 02:26N 17°56' W 066°09'0 0.0
2017-Sep-15 01:56N 17°56' W 066°09'0 0.0
2017-Sep-15 01:29N 17°56' W 066°09'0 0.0
2017-Sep-15 00:38N 17°56' W 066°09'0 0.0
2017-Sep-15 00:29N 17°56' W 066°09'0 0.0
2017-Sep-14 23:56N 17°56' W 066°09'0 0.0
2017-Sep-14 23:29N 17°56' W 066°09'0 0.0
2017-Sep-14 22:59N 17°56' W 066°09'0 0.0
2017-Sep-14 22:26N 17°56' W 066°09'0 0.0
2017-Sep-14 21:56N 17°56' W 066°09'0 0.0
2017-Sep-14 21:29N 17°56' W 066°09'0 0.0
2017-Sep-14 20:56N 17°56' W 066°09'0 0.0
2017-Sep-14 20:26N 17°56' W 066°09'0 0.0
2017-Sep-14 19:56N 17°56' W 066°09'0 0.0
2017-Sep-14 19:29N 17°56' W 066°09'0 0.0
2017-Sep-14 18:59N 17°56' W 066°09'0 0.0
2017-Sep-14 18:26N 17°56' W 066°09'0 0.0
2017-Sep-14 17:50N 17°56' W 066°09'0 0.0
2017-Sep-14 17:08N 17°56' W 066°09'0 0.0
2017-Sep-14 16:38N 17°56' W 066°09'0 0.0
2017-Sep-14 16:14N 17°56' W 066°09'0 0.0
2017-Sep-14 15:56N 17°56' W 066°09'0 0.0
2017-Sep-14 15:26N 17°56' W 066°09'0 0.0
2017-Sep-14 14:56N 17°56' W 066°09'0 0.0
2017-Sep-14 14:26N 17°56' W 066°09'0 0.0
2017-Sep-14 13:32N 17°56' W 066°09'0 0.0
2017-Sep-14 13:29N 17°56' W 066°09'0 0.0
2017-Sep-14 12:44N 17°56' W 066°09'0 0.0
2017-Sep-14 12:29N 17°56' W 066°09'0 0.0
2017-Sep-14 11:59N 17°56' W 066°09'0 0.0
2017-Sep-14 10:38N 17°56' W 066°09'0 0.0
2017-Sep-14 10:20N 17°56' W 066°09'0 0.0
2017-Sep-14 09:56N 17°56' W 066°09'0 0.0
2017-Sep-14 09:02N 17°56' W 066°09'0 0.0
2017-Sep-14 08:56N 17°56' W 066°09'0 0.0
2017-Sep-14 08:26N 17°56' W 066°09'0 0.0
2017-Sep-14 07:50N 17°56' W 066°09'0 0.0
2017-Sep-14 06:56N 17°56' W 066°09'0 0.0
2017-Sep-14 05:02N 17°56' W 066°09'0 0.0
2017-Sep-14 04:50N 17°56' W 066°09'0 0.0
2017-Sep-14 04:14N 17°56' W 066°09'0 0.0
2017-Sep-14 03:20N 17°56' W 066°09'0 0.0
2017-Sep-14 02:56N 17°56' W 066°09'0 0.0
2017-Sep-14 02:26N 17°56' W 066°09'0 0.0
2017-Sep-14 01:59N 17°56' W 066°09'0 0.0
2017-Sep-14 01:26N 17°56' W 066°09'0 0.0
2017-Sep-14 00:56N 17°56' W 066°09'0 0.0
2017-Sep-14 00:20N 17°56' W 066°09'0 0.0
2017-Sep-13 23:56N 17°56' W 066°09'0 0.0
2017-Sep-13 21:32N 17°56' W 066°09'0 0.0
2017-Sep-13 21:14N 17°56' W 066°09'0 0.0
2017-Sep-13 20:56N 17°56' W 066°09'0 0.0
2017-Sep-13 19:38N 17°56' W 066°09'0 0.0
2017-Sep-13 19:14N 17°56' W 066°09'0 0.0
2017-Sep-13 18:50N 17°56' W 066°09'0 0.0
2017-Sep-13 18:26N 17°56' W 066°09'0 0.0
2017-Sep-13 17:38N 17°56' W 066°09'0 0.0
2017-Sep-13 17:26N 17°56' W 066°09'0 0.0
2017-Sep-13 16:56N 17°56' W 066°09'0 0.0
2017-Sep-13 16:29N 17°56' W 066°09'0 0.0
2017-Sep-13 15:53N 17°56' W 066°09'0 0.0
2017-Sep-13 15:20N 17°56' W 066°09'0 0.0
2017-Sep-13 14:59N 17°56' W 066°09'0 0.0
2017-Sep-13 14:23N 17°56' W 066°09'0 0.0
2017-Sep-13 13:50N 17°56' W 066°09'0 0.0
2017-Sep-13 13:26N 17°56' W 066°09'0 0.0
2017-Sep-13 12:50N 17°56' W 066°09'0 0.0
2017-Sep-13 12:29N 17°56' W 066°09'0 0.0
2017-Sep-13 11:56N 17°56' W 066°09'0 0.0
2017-Sep-13 10:26N 17°56' W 066°09'0 0.0
2017-Sep-13 09:38N 17°56' W 066°09'0 0.0
2017-Sep-13 09:14N 17°56' W 066°09'0 0.0
2017-Sep-13 08:56N 17°56' W 066°09'0 0.0
2017-Sep-13 08:14N 17°56' W 066°09'0 0.0
2017-Sep-13 07:14N 17°56' W 066°09'0 0.0
2017-Sep-13 06:44N 17°56' W 066°09'0 0.0
2017-Sep-13 06:26N 17°56' W 066°09'0 0.0
2017-Sep-13 05:56N 17°56' W 066°09'0 0.0
2017-Sep-13 05:26N 17°56' W 066°09'0 0.0
2017-Sep-13 04:50N 17°56' W 066°09'0 0.0
2017-Sep-13 04:20N 17°56' W 066°09'0 0.0
2017-Sep-13 03:53N 17°56' W 066°09'0 0.0
2017-Sep-13 03:20N 17°56' W 066°09'0 0.0
2017-Sep-13 02:50N 17°56' W 066°09'0 0.0
2017-Sep-13 02:20N 17°56' W 066°09'0 0.0
2017-Sep-13 01:56N 17°56' W 066°09'0 0.0
2017-Sep-13 01:20N 17°56' W 066°09'0 0.0
2017-Sep-13 00:50N 17°56' W 066°09'0 0.0
2017-Sep-13 00:26N 17°56' W 066°09'0 0.0
2017-Sep-12 23:59N 17°56' W 066°09'0 0.0
2017-Sep-12 23:26N 17°56' W 066°09'0 0.0
2017-Sep-12 22:59N 17°56' W 066°09'0 0.0
2017-Sep-12 22:26N 17°56' W 066°09'0 0.0
2017-Sep-12 21:59N 17°56' W 066°09'0 0.0
2017-Sep-12 21:26N 17°56' W 066°09'0 0.0
2017-Sep-12 20:44N 17°56' W 066°09'0 0.0
2017-Sep-12 20:26N 17°56' W 066°09'0 0.0
2017-Sep-12 19:56N 17°56' W 066°09'0 0.0
2017-Sep-12 19:26N 17°56' W 066°09'0 0.0
2017-Sep-12 18:59N 17°56' W 066°09'0 0.0
2017-Sep-12 18:29N 17°56' W 066°09'0 0.0
2017-Sep-12 17:59N 17°56' W 066°09'0 0.0
2017-Sep-12 17:02N 17°56' W 066°09'0 0.0
2017-Sep-12 16:53N 17°56' W 066°09'0 0.0
2017-Sep-12 16:26N 17°56' W 066°09'0 0.0
2017-Sep-12 15:56N 17°56' W 066°09'0 0.0
2017-Sep-12 15:26N 17°56' W 066°09'0 0.0
2017-Sep-12 14:56N 17°56' W 066°09'0 0.0
2017-Sep-12 14:26N 17°56' W 066°09'0 0.0
2017-Sep-12 13:56N 17°56' W 066°09'0 0.0
2017-Sep-12 13:26N 17°56' W 066°09'0 0.0
2017-Sep-12 12:56N 17°56' W 066°09'0 0.0
2017-Sep-12 12:26N 17°56' W 066°09'0 0.0
2017-Sep-12 11:56N 17°56' W 066°09'0 0.0
2017-Sep-12 11:26N 17°56' W 066°09'0 0.0
2017-Sep-12 10:59N 17°56' W 066°09'0 0.0
2017-Sep-12 10:26N 17°56' W 066°09'0 0.0
2017-Sep-12 09:50N 17°56' W 066°09'0 0.0
2017-Sep-12 09:26N 17°56' W 066°09'0 0.0
2017-Sep-12 08:50N 17°56' W 066°09'0 0.0
2017-Sep-12 08:26N 17°56' W 066°09'0 0.0
2017-Sep-12 07:56N 17°56' W 066°09'0 0.0
2017-Sep-12 07:29N 17°56' W 066°09'0 0.0
2017-Sep-12 06:56N 17°56' W 066°09'0 0.0
2017-Sep-12 06:26N 17°56' W 066°09'0 0.0
2017-Sep-12 05:56N 17°56' W 066°09'0 0.0
2017-Sep-12 05:26N 17°56' W 066°09'0 0.0
2017-Sep-12 04:44N 17°56' W 066°09'0 0.0
2017-Sep-12 04:29N 17°56' W 066°09'0 0.0
2017-Sep-12 03:56N 17°56' W 066°09'0 0.0
2017-Sep-12 03:26N 17°56' W 066°09'0 0.0
2017-Sep-12 02:56N 17°56' W 066°09'0 0.0
2017-Sep-12 02:26N 17°56' W 066°09'0 0.0
2017-Sep-12 01:59N 17°56' W 066°09'0 0.0
2017-Sep-12 01:26N 17°56' W 066°09'0 0.0
2017-Sep-12 00:56N 17°56' W 066°09'0 0.0
2017-Sep-12 00:26N 17°56' W 066°09'0 0.0
2017-Sep-11 23:56N 17°56' W 066°09'0 0.0
2017-Sep-11 23:26N 17°56' W 066°09'0 0.0
2017-Sep-11 22:59N 17°56' W 066°09'0 0.0
2017-Sep-11 22:29N 17°56' W 066°09'0 0.0
2017-Sep-11 21:59N 17°56' W 066°09'0 0.0
2017-Sep-11 21:26N 17°56' W 066°09'0 0.0
2017-Sep-11 20:56N 17°56' W 066°09'0 0.0
2017-Sep-11 20:26N 17°56' W 066°09'0 0.0
2017-Sep-11 19:56N 17°56' W 066°09'0 0.0
2017-Sep-11 19:29N 17°56' W 066°09'0 0.0
2017-Sep-11 18:56N 17°56' W 066°09'0 0.0
2017-Sep-11 18:26N 17°56' W 066°09'0 0.0
2017-Sep-11 17:56N 17°56' W 066°09'0 0.0
2017-Sep-11 17:26N 17°56' W 066°09'0 0.0
2017-Sep-11 16:50N 17°56' W 066°09'0 0.0
2017-Sep-11 16:26N 17°56' W 066°09'0 0.0
2017-Sep-11 15:56N 17°56' W 066°09'0 0.0
2017-Sep-11 15:26N 17°56' W 066°09'0 0.0
2017-Sep-11 14:56N 17°56' W 066°09'0 0.0
2017-Sep-11 14:29N 17°56' W 066°09'0 0.0
2017-Sep-11 13:44N 17°56' W 066°09'0 0.0
2017-Sep-11 13:23N 17°56' W 066°09'0 0.0
2017-Sep-11 12:59N 17°56' W 066°09'0 0.0
2017-Sep-11 12:23N 17°56' W 066°09'0 0.0
2017-Sep-11 11:59N 17°56' W 066°09'0 0.0
2017-Sep-11 11:29N 17°56' W 066°09'0 0.0
2017-Sep-11 10:59N 17°56' W 066°09'0 0.0
2017-Sep-11 10:29N 17°56' W 066°09'0 0.0
2017-Sep-11 09:56N 17°56' W 066°09'0 0.0
2017-Sep-11 09:26N 17°56' W 066°09'0 0.0
2017-Sep-11 08:59N 17°56' W 066°09'0 0.0
2017-Sep-11 08:26N 17°56' W 066°09'0 0.0
2017-Sep-11 07:56N 17°56' W 066°09'0 0.0
2017-Sep-11 07:29N 17°56' W 066°09'0 0.0
2017-Sep-11 06:50N 17°56' W 066°09'0 0.0
2017-Sep-11 06:08N 17°56' W 066°09'0 0.0
2017-Sep-11 05:59N 17°56' W 066°09'0 0.0
2017-Sep-11 05:29N 17°56' W 066°09'0 0.0
2017-Sep-11 04:50N 17°56' W 066°09'0 0.0
2017-Sep-11 04:20N 17°56' W 066°09'0 0.0
2017-Sep-11 03:56N 17°56' W 066°09'0 0.0
2017-Sep-11 03:29N 17°56' W 066°09'0 0.0
2017-Sep-11 02:53N 17°56' W 066°09'0 0.0
2017-Sep-11 02:29N 17°56' W 066°09'0 0.0
2017-Sep-11 01:56N 17°56' W 066°09'0 0.0
2017-Sep-11 01:26N 17°56' W 066°09'0 0.0
2017-Sep-11 00:56N 17°56' W 066°09'0 0.0
2017-Sep-11 00:26N 17°56' W 066°09'0 0.0
2017-Sep-10 23:59N 17°56' W 066°09'0 0.0
2017-Sep-10 23:26N 17°56' W 066°09'0 0.0
2017-Sep-10 22:59N 17°56' W 066°09'0 0.0
2017-Sep-10 22:11N 17°56' W 066°09'0 0.0
2017-Sep-10 21:59N 17°56' W 066°09'0 0.0
2017-Sep-10 21:26N 17°56' W 066°09'0 0.0
2017-Sep-10 20:56N 17°56' W 066°09'0 0.0
2017-Sep-10 20:26N 17°56' W 066°09'0 0.0
2017-Sep-10 19:59N 17°56' W 066°09'0 0.0
2017-Sep-10 19:26N 17°56' W 066°09'0 0.0
2017-Sep-10 18:44N 17°56' W 066°09'0 0.0
2017-Sep-10 18:26N 17°56' W 066°09'0 0.0
2017-Sep-10 17:50N 17°56' W 066°09'0 0.0
2017-Sep-10 17:29N 17°56' W 066°09'0 0.0
2017-Sep-10 16:56N 17°56' W 066°09'0 0.0
2017-Sep-10 16:14N 17°56' W 066°09'0 0.0
2017-Sep-10 15:44N 17°56' W 066°09'0 0.0
2017-Sep-10 15:26N 17°56' W 066°09'0 0.0
2017-Sep-10 14:56N 17°56' W 066°09'0 0.0
2017-Sep-10 13:56N 17°56' W 066°09'0 0.0
2017-Sep-10 13:20N 17°56' W 066°09'0 0.0
2017-Sep-10 12:59N 17°56' W 066°09'0 0.0
2017-Sep-10 12:29N 17°56' W 066°09'0 0.0
2017-Sep-10 11:56N 17°56' W 066°09'0 0.0
2017-Sep-10 11:26N 17°56' W 066°09'0 0.0
2017-Sep-10 10:50N 17°56' W 066°09'0 0.0
2017-Sep-10 10:29N 17°56' W 066°09'0 0.0
2017-Sep-10 09:26N 17°56' W 066°09'0 0.0
2017-Sep-10 08:56N 17°56' W 066°09'0 0.0
2017-Sep-10 08:26N 17°56' W 066°09'0 0.0
2017-Sep-10 07:56N 17°56' W 066°09'0 0.0
2017-Sep-10 07:26N 17°56' W 066°09'0 0.0
2017-Sep-10 06:59N 17°56' W 066°09'0 0.0
2017-Sep-10 06:29N 17°56' W 066°09'0 0.0
2017-Sep-10 05:59N 17°56' W 066°09'0 0.0
2017-Sep-10 05:26N 17°56' W 066°09'0 0.0
2017-Sep-10 04:56N 17°56' W 066°09'0 0.0
2017-Sep-10 04:29N 17°56' W 066°09'0 0.0
2017-Sep-10 03:56N 17°56' W 066°09'0 0.0
2017-Sep-10 03:29N 17°56' W 066°09'0 0.0
2017-Sep-10 02:56N 17°56' W 066°09'0 0.0
2017-Sep-10 02:29N 17°56' W 066°09'  

Dump ship's entire track history